createdAt,value
2022-11-25T00:00:35.768Z,5.53
2022-11-25T00:03:03.788Z,7.30
2022-11-25T00:05:30.479Z,13.63
2022-11-25T00:07:57.319Z,9.97
2022-11-25T00:10:24.141Z,11.07
2022-11-25T00:12:50.864Z,8.60
2022-11-25T00:15:17.687Z,7.50
2022-11-25T00:17:44.485Z,8.77
2022-11-25T00:20:11.610Z,13.60
2022-11-25T00:22:38.558Z,8.73
2022-11-25T00:25:05.870Z,10.50
2022-11-25T00:27:32.683Z,10.23
2022-11-25T00:29:59.465Z,7.73
2022-11-25T00:32:26.167Z,7.77
2022-11-25T00:34:52.961Z,9.00
2022-11-25T00:37:19.860Z,10.47
2022-11-25T00:39:46.751Z,9.97
2022-11-25T00:42:32.289Z,11.57
2022-11-25T00:44:59.025Z,9.17
2022-11-25T00:47:25.859Z,7.77
2022-11-25T00:49:54.931Z,7.33
2022-11-25T00:52:25.161Z,8.43
2022-11-25T00:54:52.918Z,11.53
2022-11-25T00:57:22.329Z,5.47
2022-11-25T00:59:49.656Z,5.97
2022-11-25T01:02:18.114Z,10.53
2022-11-25T01:04:45.586Z,10.90
2022-11-25T01:07:12.465Z,6.73
2022-11-25T01:09:39.325Z,10.87
2022-11-25T01:12:06.331Z,9.60
2022-11-25T01:14:34.286Z,11.97
2022-11-25T01:17:01.485Z,10.70
2022-11-25T01:19:28.455Z,8.87
2022-11-25T01:21:55.164Z,8.83
2022-11-25T01:24:23.947Z,10.60
2022-11-25T01:26:51.214Z,10.03
2022-11-25T01:29:19.278Z,5.80
2022-11-25T01:31:46.865Z,5.27
2022-11-25T01:34:17.737Z,6.90
2022-11-25T01:36:44.890Z,11.77
2022-11-25T01:39:27.091Z,7.57
2022-11-25T01:41:58.648Z,7.17
2022-11-25T01:44:29.414Z,11.33
2022-11-25T01:46:56.243Z,7.93
2022-11-25T01:49:35.456Z,8.93
2022-11-25T01:52:27.217Z,8.53
2022-11-25T01:54:56.071Z,11.67
2022-11-25T01:57:28.716Z,7.77
2022-11-25T02:00:00.154Z,8.53
2022-11-25T02:02:29.084Z,8.37
2022-11-25T02:04:56.757Z,6.90
2022-11-25T02:07:44.798Z,14.67
2022-11-25T02:10:16.855Z,10.20
2022-11-25T02:12:46.551Z,7.63
2022-11-25T02:15:15.471Z,4.70
2022-11-25T02:17:44.034Z,9.97
2022-11-25T02:20:14.047Z,10.77
2022-11-25T02:22:59.738Z,6.33
2022-11-25T02:25:41.007Z,9.53
2022-11-25T02:28:21.419Z,10.50
2022-11-25T02:30:48.620Z,7.67
2022-11-25T02:33:16.281Z,6.83
2022-11-25T02:35:53.472Z,6.23
2022-11-25T02:38:29.509Z,8.30
2022-11-25T02:41:11.465Z,11.40
2022-11-25T02:43:39.286Z,12.90
2022-11-25T02:46:09.558Z,6.17
2022-11-25T02:49:07.288Z,8.53
2022-11-25T02:51:28.838Z,12.07
2022-11-25T02:53:59.334Z,6.60
2022-11-25T02:56:29.858Z,4.47
2022-11-25T02:58:56.938Z,6.20
2022-11-25T03:01:23.975Z,6.63
2022-11-25T03:03:50.881Z,5.17
2022-11-25T03:06:17.930Z,5.77
2022-11-25T03:08:44.931Z,8.87
2022-11-25T03:11:11.937Z,5.43
2022-11-25T03:13:38.878Z,5.43
2022-11-25T03:16:05.974Z,5.13
2022-11-25T03:18:32.870Z,7.43
2022-11-25T03:20:59.645Z,3.60
2022-11-25T03:23:26.962Z,4.63
2022-11-25T03:25:54.190Z,4.93
2022-11-25T03:28:21.355Z,3.47
2022-11-25T03:30:48.104Z,7.07
2022-11-25T03:33:15.052Z,5.70
2022-11-25T03:35:41.918Z,6.50
2022-11-25T03:38:08.735Z,7.13
2022-11-25T03:40:35.509Z,3.70
2022-11-25T03:43:02.452Z,4.03
2022-11-25T03:45:29.451Z,6.97
2022-11-25T03:47:56.277Z,8.70
2022-11-25T03:50:23.101Z,8.63
2022-11-25T03:52:49.991Z,5.47
2022-11-25T03:55:16.839Z,8.33
2022-11-25T03:57:43.605Z,4.53
2022-11-25T04:00:11.429Z,4.07
2022-11-25T04:02:38.226Z,2.50
2022-11-25T04:05:05.634Z,9.27
2022-11-25T04:07:32.548Z,2.50
2022-11-25T04:09:59.336Z,4.70
2022-11-25T04:12:44.759Z,4.60
2022-11-25T04:15:11.549Z,4.20
2022-11-25T04:17:38.370Z,2.50
2022-11-25T04:20:05.876Z,7.67
2022-11-25T04:22:32.746Z,3.47
2022-11-25T04:24:59.683Z,7.43
2022-11-25T04:27:26.512Z,5.73
2022-11-25T04:29:53.273Z,3.63
2022-11-25T04:32:20.100Z,3.03
2022-11-25T04:34:47.131Z,3.80
2022-11-25T04:37:13.966Z,5.43
2022-11-25T04:39:40.857Z,2.80
2022-11-25T04:42:26.479Z,4.63
2022-11-25T04:45:20.874Z,4.40
2022-11-25T04:47:40.289Z,1.00
2022-11-25T04:50:10.141Z,3.30
2022-11-25T04:52:36.853Z,3.43
2022-11-25T04:55:03.876Z,4.00
2022-11-25T04:57:30.817Z,1.57
2022-11-25T04:59:57.510Z,1.07
2022-11-25T05:02:26.364Z,2.47
2022-11-25T05:04:56.043Z,2.67
2022-11-25T05:07:25.540Z,3.00
2022-11-25T05:09:52.672Z,1.73
2022-11-25T05:12:25.867Z,1.40
2022-11-25T05:14:53.075Z,2.03
2022-11-25T05:17:22.559Z,6.20
2022-11-25T05:19:50.264Z,1.23
2022-11-25T05:22:19.567Z,3.80
2022-11-25T05:24:46.446Z,1.43
2022-11-25T05:27:13.614Z,6.97
2022-11-25T05:29:40.569Z,1.57
2022-11-25T05:32:07.779Z,1.57
2022-11-25T05:34:35.799Z,1.07
2022-11-25T05:37:02.992Z,1.83
2022-11-25T05:39:29.858Z,2.20
2022-11-25T05:41:56.793Z,2.07
2022-11-25T05:44:23.628Z,5.67
2022-11-25T05:46:50.692Z,2.73
2022-11-25T05:49:17.954Z,3.27
2022-11-25T05:51:45.306Z,1.77
2022-11-25T05:54:12.335Z,2.23
2022-11-25T05:56:39.416Z,3.23
2022-11-25T05:59:06.664Z,1.80
2022-11-25T06:01:33.752Z,4.83
2022-11-25T06:04:05.268Z,2.07
2022-11-25T06:06:32.532Z,2.63
2022-11-25T06:08:59.809Z,2.47
2022-11-25T06:11:26.949Z,1.97
2022-11-25T06:13:55.739Z,4.07
2022-11-25T06:16:23.507Z,4.17
2022-11-25T06:18:50.864Z,2.20
2022-11-25T06:21:17.849Z,4.70
2022-11-25T06:23:47.419Z,2.17
2022-11-25T06:26:19.863Z,2.13
2022-11-25T06:28:47.013Z,1.60
2022-11-25T06:31:16.669Z,5.67
2022-11-25T06:33:47.105Z,2.67
2022-11-25T06:36:17.413Z,3.20
2022-11-25T06:38:45.867Z,2.90
2022-11-25T06:41:13.029Z,4.77
2022-11-25T06:43:39.907Z,1.93
2022-11-25T06:46:08.857Z,4.27
2022-11-25T06:48:36.676Z,2.13
2022-11-25T06:51:06.408Z,6.90
2022-11-25T06:53:34.818Z,3.67
2022-11-25T06:56:05.310Z,7.67
2022-11-25T06:58:36.438Z,3.37
2022-11-25T07:01:12.794Z,5.40
2022-11-25T07:03:39.750Z,7.80
2022-11-25T07:06:11.480Z,3.10
2022-11-25T07:08:38.311Z,5.23
2022-11-25T07:11:17.711Z,3.63
2022-11-25T07:13:44.870Z,9.60
2022-11-25T07:16:12.722Z,5.20
2022-11-25T07:18:40.973Z,5.63
2022-11-25T07:21:13.855Z,3.33
2022-11-25T07:23:42.041Z,7.13
2022-11-25T07:26:14.564Z,2.80
2022-11-25T07:28:42.673Z,4.43
2022-11-25T07:34:00.813Z,4.03
2022-11-25T07:36:28.761Z,4.10
2022-11-25T07:38:57.574Z,4.23
2022-11-25T07:41:26.226Z,4.87
2022-11-25T07:43:56.875Z,2.67
2022-11-25T07:46:34.588Z,5.63
2022-11-25T07:49:04.984Z,7.70
2022-11-25T07:51:35.003Z,7.37
2022-11-25T07:54:03.339Z,4.80
2022-11-25T07:56:30.678Z,5.27
2022-11-25T07:58:57.814Z,5.70
2022-11-25T08:01:24.858Z,5.60
2022-11-25T08:03:52.591Z,3.30
2022-11-25T08:06:22.436Z,3.90
2022-11-25T08:08:50.120Z,2.63
2022-11-25T08:11:21.188Z,4.17
2022-11-25T08:13:48.438Z,6.27
2022-11-25T08:16:17.027Z,8.57
2022-11-25T08:18:44.523Z,3.37
2022-11-25T08:21:13.444Z,4.40
2022-11-25T08:23:43.326Z,7.53
2022-11-25T08:26:19.821Z,5.37
2022-11-25T08:28:47.345Z,5.23
2022-11-25T08:31:29.234Z,4.80
2022-11-25T08:33:56.664Z,3.03
2022-11-25T08:36:24.372Z,6.80
2022-11-25T08:38:54.068Z,7.23
2022-11-25T08:41:32.309Z,6.17
2022-11-25T08:44:01.460Z,4.07
2022-11-25T08:46:33.399Z,6.43
2022-11-25T08:49:00.651Z,3.73
2022-11-25T08:51:33.537Z,5.80
2022-11-25T08:54:01.896Z,5.53
2022-11-25T08:56:29.079Z,3.67
2022-11-25T08:58:56.130Z,4.47
2022-11-25T09:01:24.843Z,4.60
2022-11-25T09:03:55.780Z,4.37
2022-11-25T09:06:23.852Z,11.80
2022-11-25T09:08:50.863Z,10.00
2022-11-25T09:11:17.935Z,5.93
2022-11-25T09:13:44.870Z,7.97
2022-11-25T09:16:11.775Z,9.20
2022-11-25T09:18:39.921Z,4.80
2022-11-25T09:21:12.251Z,6.57
2022-11-25T09:23:39.971Z,6.60
2022-11-25T09:26:08.200Z,9.00
2022-11-25T09:28:36.616Z,4.80
2022-11-25T09:31:08.537Z,6.47
2022-11-25T09:33:35.484Z,5.33
2022-11-25T09:36:02.931Z,6.77
2022-11-25T09:38:29.865Z,5.80
2022-11-25T09:41:05.494Z,7.90
2022-11-25T09:44:10.109Z,4.37
2022-11-25T09:46:56.495Z,7.83
2022-11-25T09:50:17.288Z,6.13
2022-11-25T09:53:08.689Z,8.70
2022-11-25T09:55:45.600Z,6.83
2022-11-25T09:58:37.259Z,3.33
2022-11-25T10:01:13.907Z,6.53
2022-11-25T10:03:47.729Z,6.70
2022-11-25T10:06:28.387Z,4.67
2022-11-25T10:09:10.586Z,6.20
2022-11-25T10:11:46.086Z,5.87
2022-11-25T10:14:42.704Z,6.13
2022-11-25T10:17:27.549Z,7.30
2022-11-25T10:20:12.762Z,4.60
2022-11-25T10:22:49.178Z,7.33
2022-11-25T10:25:20.260Z,5.63
2022-11-25T10:28:01.699Z,5.33
2022-11-25T10:30:50.010Z,5.63
2022-11-25T10:33:32.526Z,4.97
2022-11-25T10:36:14.035Z,4.80
2022-11-25T10:39:01.666Z,5.83
2022-11-25T10:42:07.130Z,6.00
2022-11-25T10:44:41.737Z,8.20
2022-11-25T10:47:27.217Z,4.40
2022-11-25T10:49:56.876Z,3.17
2022-11-25T10:52:27.677Z,5.70
2022-11-25T10:55:07.860Z,4.90
2022-11-25T10:57:35.361Z,4.33
2022-11-25T11:00:04.705Z,4.57
2022-11-25T11:02:39.023Z,5.03
2022-11-25T11:05:08.529Z,8.23
2022-11-25T11:07:41.371Z,8.37
2022-11-25T11:10:19.888Z,5.37
2022-11-25T11:12:58.619Z,5.57
2022-11-25T11:15:28.485Z,6.23
2022-11-25T11:17:57.490Z,5.93
2022-11-25T11:20:31.791Z,6.13
2022-11-25T11:23:09.774Z,9.10
2022-11-25T11:25:39.036Z,4.47
2022-11-25T11:28:29.298Z,4.87
2022-11-25T11:31:01.311Z,5.60
2022-11-25T11:33:34.586Z,7.97
2022-11-25T11:36:30.082Z,6.73
2022-11-25T11:39:08.732Z,3.93
2022-11-25T11:41:44.923Z,4.13
2022-11-25T11:45:00.023Z,6.50
2022-11-25T11:47:39.955Z,4.67
2022-11-25T11:50:35.693Z,3.73
2022-11-25T11:53:26.371Z,3.37
2022-11-25T11:56:33.626Z,7.90
2022-11-25T11:59:30.066Z,9.73
2022-11-25T12:02:21.581Z,8.03
2022-11-25T12:05:05.733Z,6.27
2022-11-25T12:07:42.075Z,5.70
2022-11-25T12:10:15.072Z,8.70
2022-11-25T12:13:03.086Z,8.17
2022-11-25T12:16:04.772Z,5.07
2022-11-25T12:18:42.155Z,5.07
2022-11-25T12:21:19.365Z,5.43
2022-11-25T12:24:05.035Z,5.50
2022-11-25T12:26:48.303Z,11.67
2022-11-25T12:29:44.555Z,4.90
2022-11-25T12:32:42.460Z,3.13
2022-11-25T12:35:12.018Z,8.23
2022-11-25T12:38:11.216Z,7.93
2022-11-25T12:40:49.974Z,5.20
2022-11-25T12:43:31.828Z,7.40
2022-11-25T12:46:13.468Z,6.37
2022-11-25T12:48:42.467Z,8.97
2022-11-25T12:51:42.350Z,6.57
2022-11-25T12:54:39.917Z,6.23
2022-11-25T12:57:45.830Z,7.13
2022-11-25T13:00:40.389Z,5.60
2022-11-25T13:03:20.436Z,6.43
2022-11-25T13:05:49.949Z,6.87
2022-11-25T13:08:35.666Z,9.87
2022-11-25T13:11:28.923Z,8.40
2022-11-25T13:13:56.229Z,11.50
2022-11-25T13:16:24.358Z,8.77
2022-11-25T13:18:52.327Z,7.77
2022-11-25T13:21:19.755Z,6.57
2022-11-25T13:23:52.694Z,7.93
2022-11-25T13:26:32.837Z,11.07
2022-11-25T13:29:02.085Z,17.67
2022-11-25T13:31:34.538Z,10.67
2022-11-25T13:34:21.702Z,10.87
2022-11-25T13:36:51.226Z,6.97
2022-11-25T13:39:36.107Z,8.53
2022-11-25T13:42:05.148Z,9.13
2022-11-25T13:44:35.679Z,10.47
2022-11-25T13:47:24.701Z,9.00
2022-11-25T13:49:55.210Z,6.97
2022-11-25T13:52:42.516Z,13.17
2022-11-25T13:55:32.630Z,13.67
2022-11-25T13:58:22.849Z,11.00
2022-11-25T14:01:06.027Z,10.47
2022-11-25T14:03:32.878Z,11.83
2022-11-25T14:06:02.840Z,12.53
2022-11-25T14:08:50.981Z,7.70
2022-11-25T14:11:23.506Z,11.87
2022-11-25T14:13:50.291Z,11.27
2022-11-25T14:17:04.142Z,8.30
2022-11-25T14:19:55.170Z,7.27
2022-11-25T14:22:34.346Z,11.90
2022-11-25T14:25:15.910Z,13.47
2022-11-25T14:27:48.523Z,12.17
2022-11-25T14:30:16.553Z,7.83
2022-11-25T14:32:45.666Z,9.93
2022-11-25T14:35:20.384Z,7.27
2022-11-25T14:38:00.942Z,10.57
2022-11-25T14:40:37.355Z,12.67
2022-11-25T14:43:17.800Z,9.70
2022-11-25T14:45:44.643Z,9.27
2022-11-25T14:48:26.037Z,11.33
2022-11-25T14:51:07.086Z,13.87
2022-11-25T14:53:49.510Z,12.90
2022-11-25T14:56:22.478Z,10.53
2022-11-25T14:58:51.675Z,9.30
2022-11-25T15:01:25.216Z,13.07
2022-11-25T15:04:12.978Z,9.97
2022-11-25T15:06:42.748Z,10.43
2022-11-25T15:09:45.550Z,11.77
2022-11-25T15:12:16.701Z,8.73
2022-11-25T15:14:52.447Z,8.80
2022-11-25T15:17:32.902Z,13.53
2022-11-25T15:20:03.743Z,11.77
2022-11-25T15:22:30.699Z,10.60
2022-11-25T15:25:13.859Z,12.13
2022-11-25T15:27:45.782Z,8.33
2022-11-25T15:30:38.266Z,12.83
2022-11-25T15:33:05.855Z,12.50
2022-11-25T15:35:32.912Z,12.37
2022-11-25T15:37:59.714Z,11.53
2022-11-25T15:40:56.176Z,10.77
2022-11-25T15:43:31.340Z,9.00
2022-11-25T15:46:04.165Z,9.17
2022-11-25T15:48:37.954Z,14.33
2022-11-25T15:51:30.954Z,8.23
2022-11-25T15:54:26.185Z,12.77
2022-11-25T15:57:03.465Z,7.33
2022-11-25T16:00:01.600Z,13.63
2022-11-25T16:02:50.349Z,6.30
2022-11-25T16:05:23.446Z,8.37
2022-11-25T16:07:50.504Z,8.37
2022-11-25T16:10:29.982Z,9.03
2022-11-25T16:13:22.588Z,9.37
2022-11-25T16:15:54.903Z,13.63
2022-11-25T16:18:40.103Z,13.83
2022-11-25T16:21:25.860Z,8.53
2022-11-25T16:24:07.851Z,18.40
2022-11-25T16:27:02.516Z,11.00
2022-11-25T16:29:50.414Z,12.83
2022-11-25T16:32:20.035Z,8.37
2022-11-25T16:34:46.954Z,11.47
2022-11-25T16:37:13.777Z,8.47
2022-11-25T16:39:40.625Z,10.87
2022-11-25T16:42:08.126Z,9.87
2022-11-25T16:44:37.057Z,10.13
2022-11-25T16:47:03.863Z,13.67
2022-11-25T16:49:31.816Z,10.03
2022-11-25T16:51:58.541Z,11.67
2022-11-25T16:54:25.337Z,11.47
2022-11-25T16:56:54.242Z,11.30
2022-11-25T16:59:31.943Z,10.90
2022-11-25T17:02:00.316Z,11.50
2022-11-25T17:04:27.617Z,12.70
2022-11-25T17:07:30.355Z,9.57
2022-11-25T17:09:44.174Z,18.03
2022-11-25T17:12:33.812Z,8.57
2022-11-25T17:15:01.925Z,10.37
2022-11-25T17:17:29.301Z,12.73
2022-11-25T17:19:56.306Z,13.47
2022-11-25T17:22:25.335Z,13.63
2022-11-25T17:24:52.388Z,12.33
2022-11-25T17:27:22.150Z,13.83
2022-11-25T17:29:49.396Z,12.83
2022-11-25T17:32:16.841Z,10.50
2022-11-25T17:34:43.867Z,7.07
2022-11-25T17:37:15.151Z,9.33
2022-11-25T17:39:42.433Z,10.57
2022-11-25T17:42:16.668Z,12.73
2022-11-25T17:44:48.576Z,12.73
2022-11-25T17:47:18.045Z,9.77
2022-11-25T17:49:45.882Z,10.67
2022-11-25T17:52:12.732Z,17.13
2022-11-25T17:54:40.045Z,9.10
2022-11-25T17:57:11.529Z,10.57
2022-11-25T17:59:38.350Z,8.80
2022-11-25T18:02:18.821Z,8.57
2022-11-25T18:04:46.136Z,11.50
2022-11-25T18:07:13.094Z,13.40
2022-11-25T18:09:39.962Z,14.27
2022-11-25T18:12:19.595Z,14.00
2022-11-25T18:14:46.451Z,14.27
2022-11-25T18:17:17.247Z,15.67
2022-11-25T18:19:45.783Z,12.33
2022-11-25T18:22:18.042Z,10.47
2022-11-25T18:24:45.161Z,13.67
2022-11-25T18:27:27.407Z,14.63
2022-11-25T18:29:55.500Z,16.50
2022-11-25T18:32:23.619Z,11.60
2022-11-25T18:34:51.685Z,10.33
2022-11-25T18:37:18.541Z,14.17
2022-11-25T18:39:45.313Z,12.33
2022-11-25T18:42:26.517Z,12.53
2022-11-25T18:44:55.384Z,12.30
2022-11-25T18:47:22.213Z,9.87
2022-11-25T18:49:55.062Z,14.77
2022-11-25T18:52:22.608Z,13.67
2022-11-25T18:54:49.664Z,14.23
2022-11-25T18:57:16.450Z,9.93
2022-11-25T18:59:44.475Z,13.03
2022-11-25T19:02:16.795Z,12.37
2022-11-25T19:04:44.443Z,11.70
2022-11-25T19:07:11.260Z,8.87
2022-11-25T19:09:38.135Z,12.80
2022-11-25T19:12:05.880Z,15.33
2022-11-25T19:14:37.086Z,9.03
2022-11-25T19:17:08.276Z,11.37
2022-11-25T19:19:37.753Z,15.53
2022-11-25T19:22:15.295Z,9.70
2022-11-25T19:24:42.837Z,8.80
2022-11-25T19:27:23.726Z,14.00
2022-11-25T19:29:51.555Z,11.70
2022-11-25T19:32:25.565Z,14.00
2022-11-25T19:35:02.996Z,13.93
2022-11-25T19:37:32.647Z,14.33
2022-11-25T19:39:59.489Z,9.20
2022-11-25T19:42:28.318Z,13.90
2022-11-25T19:44:55.432Z,11.97
2022-11-25T19:47:24.878Z,11.20
2022-11-25T19:49:54.606Z,15.70
2022-11-25T19:52:35.850Z,12.43
2022-11-25T19:55:19.744Z,13.23
2022-11-25T19:57:47.811Z,9.80
2022-11-25T20:00:16.822Z,11.77
2022-11-25T20:02:44.744Z,14.90
2022-11-25T20:05:18.665Z,13.00
2022-11-25T20:07:46.549Z,9.93
2022-11-25T20:10:20.884Z,11.93
2022-11-25T20:12:48.780Z,12.77
2022-11-25T20:15:15.960Z,12.30
2022-11-25T20:17:46.257Z,12.53
2022-11-25T20:20:35.025Z,11.97
2022-11-25T20:23:14.870Z,10.80
2022-11-25T20:25:47.175Z,12.90
2022-11-25T20:28:26.151Z,13.47
2022-11-25T20:30:53.498Z,8.53
2022-11-25T20:33:24.281Z,12.70
2022-11-25T20:35:58.490Z,10.63
2022-11-25T20:38:27.792Z,13.97
2022-11-25T20:40:58.021Z,11.07
2022-11-25T20:43:34.426Z,9.00
2022-11-25T20:46:02.662Z,10.63
2022-11-25T20:48:30.120Z,11.40
2022-11-25T20:51:01.486Z,13.67
2022-11-25T20:53:31.878Z,11.60
2022-11-25T20:55:58.860Z,9.57
2022-11-25T20:58:28.678Z,11.03
2022-11-25T21:00:57.745Z,8.60
2022-11-25T21:03:26.541Z,12.17
2022-11-25T21:05:55.095Z,14.63
2022-11-25T21:08:24.046Z,13.23
2022-11-25T21:10:53.273Z,7.30
2022-11-25T21:13:22.864Z,14.87
2022-11-25T21:15:49.820Z,17.90
2022-11-25T21:18:16.991Z,14.20
2022-11-25T21:20:43.786Z,13.80
2022-11-25T21:23:20.116Z,15.27
2022-11-25T21:25:49.135Z,19.20
2022-11-25T21:28:22.246Z,17.73
2022-11-25T21:30:49.683Z,18.30
2022-11-25T21:33:16.935Z,15.43
2022-11-25T21:35:46.870Z,20.03
2022-11-25T21:38:26.317Z,14.17
2022-11-25T21:40:58.136Z,16.13
2022-11-25T21:43:31.884Z,15.33
2022-11-25T21:46:05.498Z,15.90
2022-11-25T21:48:33.208Z,11.83
2022-11-25T21:51:00.391Z,17.93
2022-11-25T21:53:27.217Z,11.70
2022-11-25T21:55:54.168Z,14.93
2022-11-25T21:58:27.482Z,17.43
2022-11-25T22:00:57.979Z,15.33
2022-11-25T22:03:26.248Z,13.03
2022-11-25T22:05:53.033Z,16.53
2022-11-25T22:08:19.888Z,14.40
2022-11-25T22:10:50.361Z,18.03
2022-11-25T22:13:20.985Z,15.23
2022-11-25T22:15:51.988Z,14.70
2022-11-25T22:18:28.138Z,14.13
2022-11-25T22:20:55.031Z,11.90
2022-11-25T22:23:22.275Z,17.87
2022-11-25T22:25:50.558Z,16.60
2022-11-25T22:28:21.691Z,14.47
2022-11-25T22:30:53.362Z,9.90
2022-11-25T22:33:25.838Z,17.47
2022-11-25T22:35:52.716Z,12.63
2022-11-25T22:38:19.516Z,13.20
2022-11-25T22:40:56.599Z,12.57
2022-11-25T22:43:27.439Z,13.73
2022-11-25T22:45:54.733Z,14.50
2022-11-25T22:48:29.016Z,11.17
2022-11-25T22:50:55.712Z,16.83
2022-11-25T22:53:25.604Z,13.27
2022-11-25T22:55:58.192Z,11.83
2022-11-25T22:58:28.487Z,14.63
2022-11-25T23:00:56.779Z,11.83
2022-11-25T23:03:23.724Z,10.60
2022-11-25T23:05:52.263Z,14.03
2022-11-25T23:08:26.228Z,10.60
2022-11-25T23:10:54.142Z,12.77
2022-11-25T23:13:21.492Z,13.67
2022-11-25T23:16:01.200Z,11.70
2022-11-25T23:18:38.586Z,14.03
2022-11-25T23:21:23.306Z,15.17
2022-11-25T23:23:50.742Z,10.20
2022-11-25T23:26:17.859Z,17.67
2022-11-25T23:28:44.768Z,12.23
2022-11-25T23:31:14.023Z,13.87
2022-11-25T23:33:46.406Z,11.37
2022-11-25T23:36:23.898Z,16.80
2022-11-25T23:38:57.314Z,16.07
2022-11-25T23:41:29.666Z,16.03
2022-11-25T23:43:58.453Z,13.77
2022-11-25T23:46:31.594Z,17.87
2022-11-25T23:49:01.971Z,15.70
2022-11-25T23:51:30.249Z,12.93
2022-11-25T23:53:58.453Z,15.60
2022-11-25T23:56:27.820Z,9.60
2022-11-25T23:58:54.687Z,14.47
